X  Luk Metar data     EHBK Maastricht Aachen Airport
Temperatur
20°C Temperatur
13°C Duggpunkt
64% Fugtighed



Vind
27 KM/T
17 MPT
8 M/S
15 KNOB



210°
SSV
Nuværende forhold

For det meste skyet For det meste skyet
Tryk 1010.84 (hPa) - 29.85 (inHg)
Sigt 6 (mil) - 9.7 (km)
Lufthavn
Lufthavnskode EHBK

Lokation: Maastricht Aachen Airport
Afstand: 26 (km)

Metar:
EHBK 161125Z AUTO 21015KT 180V250 9999 BKN034 BKN039 20/13 Q1011 TEMPO 6000 SHRA FEW025CB

Tid: 16-07-2024 13:25 CEST